sensor_id;sensor_type;location;lat;lon;timestamp;pressure;altitude;pressure_sealevel;temperature;humidity
43161;BME280;40968;52.342;5.528;2024-03-06T00:02:26;101504.00;;;5.24;96.89
43161;BME280;40968;52.342;5.528;2024-03-06T00:04:52;101815.66;;;7.08;97.20
43161;BME280;40968;52.342;5.528;2024-03-06T00:07:19;101723.06;;;6.52;97.14
43161;BME280;40968;52.342;5.528;2024-03-06T00:09:46;101597.06;;;5.67;96.93
43161;BME280;40968;52.342;5.528;2024-03-06T00:12:12;101828.25;;;7.05;97.06
43161;BME280;40968;52.342;5.528;2024-03-06T00:14:40;101833.56;;;7.05;96.98
43161;BME280;40968;52.342;5.528;2024-03-06T00:17:07;101649.13;;;5.95;97.06
43161;BME280;40968;52.342;5.528;2024-03-06T00:19:34;101588.53;;;5.59;96.91
43161;BME280;40968;52.342;5.528;2024-03-06T00:22:01;101837.28;;;7.02;96.99
43161;BME280;40968;52.342;5.528;2024-03-06T00:24:28;101847.97;;;7.01;97.01
43161;BME280;40968;52.342;5.528;2024-03-06T00:26:55;101634.94;;;5.74;96.84
43161;BME280;40968;52.342;5.528;2024-03-06T00:29:21;101849.72;;;7.02;97.07
43161;BME280;40968;52.342;5.528;2024-03-06T00:31:49;101778.69;;;6.59;97.11
43161;BME280;40968;52.342;5.528;2024-03-06T00:34:16;101849.78;;;7.00;97.15
43161;BME280;40968;52.342;5.528;2024-03-06T00:36:43;101559.16;;;5.19;96.99
43161;BME280;40968;52.342;5.528;2024-03-06T00:39:09;101648.66;;;5.63;97.27
43161;BME280;40968;52.342;5.528;2024-03-06T00:41:36;101853.31;;;7.01;97.21
43161;BME280;40968;52.342;5.528;2024-03-06T00:44:03;101635.97;;;5.70;97.06
43161;BME280;40968;52.342;5.528;2024-03-06T00:46:31;101855.94;;;7.02;97.29
43161;BME280;40968;52.342;5.528;2024-03-06T00:48:58;101681.91;;;5.95;97.34
43161;BME280;40968;52.342;5.528;2024-03-06T00:51:25;101805.84;;;6.68;97.14
43161;BME280;40968;52.342;5.528;2024-03-06T00:53:52;101791.34;;;6.54;97.08
43161;BME280;40968;52.342;5.528;2024-03-06T00:56:18;101870.19;;;7.01;97.23
43161;BME280;40968;52.342;5.528;2024-03-06T00:58:45;101797.41;;;6.58;97.26
43161;BME280;40968;52.342;5.528;2024-03-06T01:01:12;101775.75;;;6.45;97.19
43161;BME280;40968;52.342;5.528;2024-03-06T01:03:39;101877.38;;;6.99;97.26
43161;BME280;40968;52.342;5.528;2024-03-06T01:06:07;101867.59;;;7.00;97.38
43161;BME280;40968;52.342;5.528;2024-03-06T01:08:33;101871.09;;;7.00;97.32
43161;BME280;40968;52.342;5.528;2024-03-06T01:11:01;101879.09;;;7.00;97.46
43161;BME280;40968;52.342;5.528;2024-03-06T01:13:28;101757.88;;;6.26;97.33
43161;BME280;40968;52.342;5.528;2024-03-06T01:15:55;101770.66;;;6.39;97.34
43161;BME280;40968;52.342;5.528;2024-03-06T01:18:21;101890.63;;;7.01;97.28
43161;BME280;40968;52.342;5.528;2024-03-06T01:20:48;101656.56;;;5.64;97.18
43161;BME280;40968;52.342;5.528;2024-03-06T01:23:16;101883.56;;;7.00;97.34
43161;BME280;40968;52.342;5.528;2024-03-06T01:25:42;101897.84;;;6.99;97.17
43161;BME280;40968;52.342;5.528;2024-03-06T01:28:09;101897.84;;;6.99;97.11
43161;BME280;40968;52.342;5.528;2024-03-06T01:30:35;101800.50;;;6.47;97.02
43161;BME280;40968;52.342;5.528;2024-03-06T01:33:02;101833.56;;;6.63;97.13
43161;BME280;40968;52.342;5.528;2024-03-06T01:35:30;101804.16;;;6.44;96.99
43161;BME280;40968;52.342;5.528;2024-03-06T01:37:56;101629.25;;;5.39;96.92
43161;BME280;40968;52.342;5.528;2024-03-06T01:40:24;101671.53;;;5.67;96.96
43161;BME280;40968;52.342;5.528;2024-03-06T01:42:51;101897.94;;;6.95;97.08
43161;BME280;40968;52.342;5.528;2024-03-06T01:45:18;101749.59;;;6.12;97.18
43161;BME280;40968;52.342;5.528;2024-03-06T01:47:45;101853.81;;;6.68;96.99
43161;BME280;40968;52.342;5.528;2024-03-06T01:50:12;101894.59;;;6.90;97.00
43161;BME280;40968;52.342;5.528;2024-03-06T01:52:39;101837.53;;;6.53;96.82
43161;BME280;40968;52.342;5.528;2024-03-06T01:55:09;101838.53;;;6.51;97.03
43161;BME280;40968;52.342;5.528;2024-03-06T01:57:38;101675.75;;;5.51;96.72
43161;BME280;40968;52.342;5.528;2024-03-06T02:00:06;101722.88;;;5.69;96.89
43161;BME280;40968;52.342;5.528;2024-03-06T02:02:33;101816.84;;;6.16;97.22
43161;BME280;40968;52.342;5.528;2024-03-06T02:05:01;101911.19;;;6.76;96.95
43161;BME280;40968;52.342;5.528;2024-03-06T02:07:28;101839.78;;;6.20;96.86
43161;BME280;40968;52.342;5.528;2024-03-06T02:09:58;101825.50;;;6.22;97.05
43161;BME280;40968;52.342;5.528;2024-03-06T02:12:25;101663.34;;;5.27;96.82
43161;BME280;40968;52.342;5.528;2024-03-06T02:14:54;101920.16;;;6.74;96.77
43161;BME280;40968;52.342;5.528;2024-03-06T02:17:20;101923.75;;;6.73;96.86
43161;BME280;40968;52.342;5.528;2024-03-06T02:19:47;101687.72;;;5.39;96.64
43161;BME280;40968;52.342;5.528;2024-03-06T02:22:15;101703.44;;;5.45;96.57
43161;BME280;40968;52.342;5.528;2024-03-06T02:24:44;101909.75;;;6.68;96.51
43161;BME280;40968;52.342;5.528;2024-03-06T02:27:11;101920.41;;;6.68;96.73
43161;BME280;40968;52.342;5.528;2024-03-06T02:29:38;101823.44;;;6.07;96.70
43161;BME280;40968;52.342;5.528;2024-03-06T02:32:04;101859.75;;;6.30;96.89
43161;BME280;40968;52.342;5.528;2024-03-06T02:34:31;101831.06;;;6.16;97.01
43161;BME280;40968;52.342;5.528;2024-03-06T02:36:57;101821.63;;;6.07;97.02
43161;BME280;40968;52.342;5.528;2024-03-06T02:39:25;101918.66;;;6.67;97.22
43161;BME280;40968;52.342;5.528;2024-03-06T02:41:52;101837.16;;;6.18;97.38
43161;BME280;40968;52.342;5.528;2024-03-06T02:44:19;101917.75;;;6.68;97.24
43161;BME280;40968;52.342;5.528;2024-03-06T02:46:46;101915.09;;;6.68;97.17
43161;BME280;40968;52.342;5.528;2024-03-06T02:49:13;101925.75;;;6.68;97.20
43161;BME280;40968;52.342;5.528;2024-03-06T02:51:40;101801.19;;;5.84;96.94
43161;BME280;40968;52.342;5.528;2024-03-06T02:54:07;101915.09;;;6.68;97.12
43161;BME280;40968;52.342;5.528;2024-03-06T02:56:35;101796.00;;;5.81;96.99
43161;BME280;40968;52.342;5.528;2024-03-06T02:59:01;101517.53;;;4.26;96.60
43161;BME280;40968;52.342;5.528;2024-03-06T03:01:29;101871.22;;;6.32;96.83
43161;BME280;40968;52.342;5.528;2024-03-06T03:03:56;101832.22;;;6.09;96.87
43161;BME280;40968;52.342;5.528;2024-03-06T03:06:23;101833.25;;;6.05;96.57
43161;BME280;40968;52.342;5.528;2024-03-06T03:08:50;101830.81;;;6.00;96.67
43161;BME280;40968;52.342;5.528;2024-03-06T03:11:16;101862.06;;;6.17;96.46
43161;BME280;40968;52.342;5.528;2024-03-06T03:13:44;101882.19;;;6.24;96.48
43161;BME280;40968;52.342;5.528;2024-03-06T03:16:15;101849.44;;;6.00;96.44
43161;BME280;40968;52.342;5.528;2024-03-06T03:18:42;101881.41;;;6.22;96.17
43161;BME280;40968;52.342;5.528;2024-03-06T03:21:09;101434.41;;;3.53;95.77
43161;BME280;40968;52.342;5.528;2024-03-06T03:23:36;101710.56;;;5.21;95.89
43161;BME280;40968;52.342;5.528;2024-03-06T03:26:03;101896.41;;;6.23;96.06
43161;BME280;40968;52.342;5.528;2024-03-06T03:28:30;101925.72;;;6.45;96.00
43161;BME280;40968;52.342;5.528;2024-03-06T03:30:59;101899.22;;;6.20;96.00
43161;BME280;40968;52.342;5.528;2024-03-06T03:33:25;101726.38;;;5.24;95.99
43161;BME280;40968;52.342;5.528;2024-03-06T03:35:52;101892.03;;;6.22;96.15
43161;BME280;40968;52.342;5.528;2024-03-06T03:38:18;101785.34;;;5.59;96.17
43161;BME280;40968;52.342;5.528;2024-03-06T03:40:45;101697.78;;;5.07;96.04
43161;BME280;40968;52.342;5.528;2024-03-06T03:43:12;101761.88;;;5.46;96.29
43161;BME280;40968;52.342;5.528;2024-03-06T03:45:38;101845.41;;;5.88;95.96
43161;BME280;40968;52.342;5.528;2024-03-06T03:48:06;101940.94;;;6.42;96.34
43161;BME280;40968;52.342;5.528;2024-03-06T03:50:33;101916.66;;;6.27;96.18
43161;BME280;40968;52.342;5.528;2024-03-06T03:53:00;101519.81;;;3.88;95.96
43161;BME280;40968;52.342;5.528;2024-03-06T03:55:27;101772.81;;;5.39;96.27
43161;BME280;40968;52.342;5.528;2024-03-06T03:57:53;101918.41;;;6.28;96.42
43161;BME280;40968;52.342;5.528;2024-03-06T04:00:20;101897.69;;;6.13;96.52
43161;BME280;40968;52.342;5.528;2024-03-06T04:02:48;101786.88;;;5.41;96.29
43161;BME280;40968;52.342;5.528;2024-03-06T04:05:16;101951.88;;;6.36;96.55
43161;BME280;40968;52.342;5.528;2024-03-06T04:07:43;101678.38;;;4.81;96.13
43161;BME280;40968;52.342;5.528;2024-03-06T04:10:10;101873.72;;;5.89;96.48
43161;BME280;40968;52.342;5.528;2024-03-06T04:12:37;101793.19;;;5.38;96.44
43161;BME280;40968;52.342;5.528;2024-03-06T04:15:05;101951.09;;;6.32;96.50
43161;BME280;40968;52.342;5.528;2024-03-06T04:17:34;101941.44;;;6.29;96.51
43161;BME280;40968;52.342;5.528;2024-03-06T04:20:00;101751.75;;;5.09;96.40
43161;BME280;40968;52.342;5.528;2024-03-06T04:22:29;101761.56;;;5.07;96.03
43161;BME280;40968;52.342;5.528;2024-03-06T04:24:56;101733.91;;;4.87;96.11
43161;BME280;40968;52.342;5.528;2024-03-06T04:27:24;101742.50;;;4.95;96.06
43161;BME280;40968;52.342;5.528;2024-03-06T04:29:51;101916.31;;;5.89;96.04
43161;BME280;40968;52.342;5.528;2024-03-06T04:32:17;101827.94;;;5.34;95.84
43161;BME280;40968;52.342;5.528;2024-03-06T04:34:44;101956.38;;;6.10;96.20
43161;BME280;40968;52.342;5.528;2024-03-06T04:37:11;101802.13;;;5.12;96.11
43161;BME280;40968;52.342;5.528;2024-03-06T04:39:39;101945.34;;;5.95;96.40
43161;BME280;40968;52.342;5.528;2024-03-06T04:42:06;101901.25;;;5.64;96.27
43161;BME280;40968;52.342;5.528;2024-03-06T04:44:33;101823.16;;;5.18;96.19
43161;BME280;40968;52.342;5.528;2024-03-06T04:47:00;101832.31;;;5.09;96.25
43161;BME280;40968;52.342;5.528;2024-03-06T04:49:27;101890.50;;;5.44;96.28
43161;BME280;40968;52.342;5.528;2024-03-06T04:51:53;101919.41;;;5.53;96.42
43161;BME280;40968;52.342;5.528;2024-03-06T04:54:20;101794.53;;;4.76;96.12
43161;BME280;40968;52.342;5.528;2024-03-06T04:56:48;101958.75;;;5.69;96.20
43161;BME280;40968;52.342;5.528;2024-03-06T04:59:14;101926.88;;;5.42;96.10
43161;BME280;40968;52.342;5.528;2024-03-06T05:01:41;101933.19;;;5.39;96.11
43161;BME280;40968;52.342;5.528;2024-03-06T05:04:09;101772.28;;;4.53;96.29
43161;BME280;40968;52.342;5.528;2024-03-06T05:06:35;101883.47;;;5.16;96.50
43161;BME280;40968;52.342;5.528;2024-03-06T05:09:02;101968.78;;;5.60;96.71
43161;BME280;40968;52.342;5.528;2024-03-06T05:11:29;101793.44;;;4.56;96.57
43161;BME280;40968;52.342;5.528;2024-03-06T05:13:59;101911.47;;;5.26;96.84
43161;BME280;40968;52.342;5.528;2024-03-06T05:16:26;101756.31;;;4.28;96.56
43161;BME280;40968;52.342;5.528;2024-03-06T05:18:52;101994.19;;;5.69;96.71
43161;BME280;40968;52.342;5.528;2024-03-06T05:21:19;101760.97;;;4.21;96.26
43161;BME280;40968;52.342;5.528;2024-03-06T05:23:47;101872.06;;;4.87;96.42
43161;BME280;40968;52.342;5.528;2024-03-06T05:26:14;101885.34;;;4.87;96.37
43161;BME280;40968;52.342;5.528;2024-03-06T05:28:40;102002.63;;;5.55;96.46
43161;BME280;40968;52.342;5.528;2024-03-06T05:31:15;102011.56;;;5.54;96.39
43161;BME280;40968;52.342;5.528;2024-03-06T05:33:43;102001.00;;;5.51;96.32
43161;BME280;40968;52.342;5.528;2024-03-06T05:36:10;102004.59;;;5.50;96.15
43161;BME280;40968;52.342;5.528;2024-03-06T05:38:38;102006.44;;;5.48;96.15
43161;BME280;40968;52.342;5.528;2024-03-06T05:41:04;102013.59;;;5.46;96.11
43161;BME280;40968;52.342;5.528;2024-03-06T05:43:31;101958.97;;;5.10;96.05
43161;BME280;40968;52.342;5.528;2024-03-06T05:45:58;101920.91;;;4.83;96.07
43161;BME280;40968;52.342;5.528;2024-03-06T05:48:26;101990.66;;;5.17;96.05
43161;BME280;40968;52.342;5.528;2024-03-06T05:50:53;101811.06;;;4.04;95.96
43161;BME280;40968;52.342;5.528;2024-03-06T05:53:20;101801.56;;;3.96;95.99
43161;BME280;40968;52.342;5.528;2024-03-06T05:55:46;101937.13;;;4.74;96.00
43161;BME280;40968;52.342;5.528;2024-03-06T05:58:13;101979.97;;;4.91;95.60
43161;BME280;40968;52.342;5.528;2024-03-06T06:00:41;101874.25;;;4.19;95.60
43161;BME280;40968;52.342;5.528;2024-03-06T06:03:08;102061.97;;;5.30;95.28
43161;BME280;40968;52.342;5.528;2024-03-06T06:05:38;101761.44;;;3.49;95.28
43161;BME280;40968;52.342;5.528;2024-03-06T06:08:05;101960.56;;;4.61;95.42
43161;BME280;40968;52.342;5.528;2024-03-06T06:10:32;101783.94;;;3.65;95.21
43161;BME280;40968;52.342;5.528;2024-03-06T06:12:58;102058.69;;;5.22;95.57
43161;BME280;40968;52.342;5.528;2024-03-06T06:15:25;102039.59;;;5.09;95.59
43161;BME280;40968;52.342;5.528;2024-03-06T06:17:51;102063.28;;;5.17;95.51
43161;BME280;40968;52.342;5.528;2024-03-06T06:20:18;102077.47;;;5.16;95.64
43161;BME280;40968;52.342;5.528;2024-03-06T06:22:46;102022.84;;;4.79;95.57
43161;BME280;40968;52.342;5.528;2024-03-06T06:25:13;101889.19;;;3.93;95.31
43161;BME280;40968;52.342;5.528;2024-03-06T06:27:41;102073.88;;;4.90;95.40
43161;BME280;40968;52.342;5.528;2024-03-06T06:30:08;102011.16;;;4.56;95.36
43161;BME280;40968;52.342;5.528;2024-03-06T06:32:36;101973.78;;;4.34;95.18
43161;BME280;40968;52.342;5.528;2024-03-06T06:35:03;101862.50;;;3.68;94.91
43161;BME280;40968;52.342;5.528;2024-03-06T06:37:30;101620.47;;;2.15;94.74
43161;BME280;40968;52.342;5.528;2024-03-06T06:40:01;102050.75;;;4.64;95.21
43161;BME280;40968;52.342;5.528;2024-03-06T06:42:31;101875.16;;;3.58;95.18
43161;BME280;40968;52.342;5.528;2024-03-06T06:44:58;102119.78;;;4.95;95.31
43161;BME280;40968;52.342;5.528;2024-03-06T06:47:24;101989.28;;;4.18;95.31
43161;BME280;40968;52.342;5.528;2024-03-06T06:49:51;102113.66;;;4.92;95.79
43161;BME280;40968;52.342;5.528;2024-03-06T06:52:18;101866.13;;;3.34;95.71
43161;BME280;40968;52.342;5.528;2024-03-06T06:54:45;102107.00;;;4.78;96.33
43161;BME280;40968;52.342;5.528;2024-03-06T06:57:13;102128.75;;;4.91;96.59
43161;BME280;40968;52.342;5.528;2024-03-06T06:59:40;102133.97;;;4.94;96.81
43161;BME280;40968;52.342;5.528;2024-03-06T07:02:06;102098.19;;;4.76;96.68
43161;BME280;40968;52.342;5.528;2024-03-06T07:04:33;102090.53;;;4.65;96.41
43161;BME280;40968;52.342;5.528;2024-03-06T07:06:59;102135.59;;;4.98;96.81
43161;BME280;40968;52.342;5.528;2024-03-06T07:09:26;101964.41;;;3.91;96.77
43161;BME280;40968;52.342;5.528;2024-03-06T07:11:54;102016.50;;;4.25;97.01
43161;BME280;40968;52.342;5.528;2024-03-06T07:14:22;102105.53;;;4.68;96.90
43161;BME280;40968;52.342;5.528;2024-03-06T07:16:49;102060.78;;;4.54;96.98
43161;BME280;40968;52.342;5.528;2024-03-06T07:19:14;102082.63;;;4.64;96.99
43161;BME280;40968;52.342;5.528;2024-03-06T07:21:42;102148.72;;;5.05;97.07
43161;BME280;40968;52.342;5.528;2024-03-06T07:24:08;101854.69;;;3.32;97.01
43161;BME280;40968;52.342;5.528;2024-03-06T07:26:35;101938.22;;;3.80;97.18
43161;BME280;40968;52.342;5.528;2024-03-06T07:29:02;101853.84;;;3.31;97.42
43161;BME280;40968;52.342;5.528;2024-03-06T07:31:29;102159.19;;;5.09;97.70
43161;BME280;40968;52.342;5.528;2024-03-06T07:33:57;101928.66;;;3.73;97.53
43161;BME280;40968;52.342;5.528;2024-03-06T07:36:23;102061.94;;;4.45;97.86
43161;BME280;40968;52.342;5.528;2024-03-06T07:38:50;101940.88;;;3.78;97.73
43161;BME280;40968;52.342;5.528;2024-03-06T07:41:17;101942.66;;;3.78;97.92
43161;BME280;40968;52.342;5.528;2024-03-06T07:43:43;102183.63;;;5.22;97.99
43161;BME280;40968;52.342;5.528;2024-03-06T07:46:10;102179.13;;;5.24;97.99
43161;BME280;40968;52.342;5.528;2024-03-06T07:48:41;102178.19;;;5.27;98.18
43161;BME280;40968;52.342;5.528;2024-03-06T07:51:07;101912.00;;;3.68;98.12
43161;BME280;40968;52.342;5.528;2024-03-06T07:53:34;101890.16;;;3.59;97.97
43161;BME280;40968;52.342;5.528;2024-03-06T07:56:01;101949.34;;;3.91;98.22
43161;BME280;40968;52.342;5.528;2024-03-06T07:58:28;102104.13;;;4.86;98.38
43161;BME280;40968;52.342;5.528;2024-03-06T08:00:55;102074.72;;;4.62;98.33
43161;BME280;40968;52.342;5.528;2024-03-06T08:03:22;101980.06;;;4.00;98.04
43161;BME280;40968;52.342;5.528;2024-03-06T08:05:51;101931.19;;;3.77;98.05
43161;BME280;40968;52.342;5.528;2024-03-06T08:08:18;101976.88;;;4.19;98.15
43161;BME280;40968;52.342;5.528;2024-03-06T08:10:45;102171.69;;;5.36;98.36
43161;BME280;40968;52.342;5.528;2024-03-06T08:13:12;102209.03;;;5.61;98.24
43161;BME280;40968;52.342;5.528;2024-03-06T08:15:39;102213.28;;;5.67;98.41
43161;BME280;40968;52.342;5.528;2024-03-06T08:18:06;101997.50;;;4.39;98.22
43161;BME280;40968;52.342;5.528;2024-03-06T08:20:32;102216.63;;;5.73;98.47
43161;BME280;40968;52.342;5.528;2024-03-06T08:23:00;102128.94;;;5.13;98.16
43161;BME280;40968;52.342;5.528;2024-03-06T08:25:27;102168.13;;;5.37;97.90
43161;BME280;40968;52.342;5.528;2024-03-06T08:27:54;101894.94;;;3.78;97.53
43161;BME280;40968;52.342;5.528;2024-03-06T08:30:20;101990.47;;;4.38;97.49
43161;BME280;40968;52.342;5.528;2024-03-06T08:32:47;102234.94;;;5.82;97.58
43161;BME280;40968;52.342;5.528;2024-03-06T08:35:14;102114.97;;;5.07;97.44
43161;BME280;40968;52.342;5.528;2024-03-06T08:37:43;102025.25;;;4.58;97.31
43161;BME280;40968;52.342;5.528;2024-03-06T08:40:12;101900.19;;;3.79;96.92
43161;BME280;40968;52.342;5.528;2024-03-06T08:42:41;101993.59;;;4.22;96.98
43161;BME280;40968;52.342;5.528;2024-03-06T08:45:08;102241.03;;;5.86;97.09
43161;BME280;40968;52.342;5.528;2024-03-06T08:47:34;101805.78;;;3.12;96.73
43161;BME280;40968;52.342;5.528;2024-03-06T08:50:01;102042.00;;;4.60;97.12
43161;BME280;40968;52.342;5.528;2024-03-06T08:52:28;102103.09;;;4.90;97.35
43161;BME280;40968;52.342;5.528;2024-03-06T08:54:56;101985.16;;;4.38;97.16
43161;BME280;40968;52.342;5.528;2024-03-06T08:57:24;102014.63;;;4.58;97.15
43161;BME280;40968;52.342;5.528;2024-03-06T08:59:53;102002.41;;;4.53;97.29
43161;BME280;40968;52.342;5.528;2024-03-06T09:02:20;102077.63;;;4.83;96.93
43161;BME280;40968;52.342;5.528;2024-03-06T09:04:46;102155.44;;;5.45;97.29
43161;BME280;40968;52.342;5.528;2024-03-06T09:07:13;102013.09;;;4.51;97.18
43161;BME280;40968;52.342;5.528;2024-03-06T09:09:40;102098.75;;;5.16;97.21
43161;BME280;40968;52.342;5.528;2024-03-06T09:12:08;102047.31;;;4.90;97.25
43161;BME280;40968;52.342;5.528;2024-03-06T09:14:37;101882.25;;;3.89;97.17
43161;BME280;40968;52.342;5.528;2024-03-06T09:17:04;102103.81;;;5.25;97.76
43161;BME280;40968;52.342;5.528;2024-03-06T09:19:32;102225.41;;;6.05;97.57
43161;BME280;40968;52.342;5.528;2024-03-06T09:21:58;102241.59;;;5.96;97.54
43161;BME280;40968;52.342;5.528;2024-03-06T09:24:25;102130.88;;;5.37;97.37
43161;BME280;40968;52.342;5.528;2024-03-06T09:26:52;102073.97;;;5.15;97.50
43161;BME280;40968;52.342;5.528;2024-03-06T09:29:19;102314.84;;;6.64;97.45
43161;BME280;40968;52.342;5.528;2024-03-06T09:31:47;102034.44;;;5.05;96.90
43161;BME280;40968;52.342;5.528;2024-03-06T09:34:14;102015.94;;;5.02;97.02
43161;BME280;40968;52.342;5.528;2024-03-06T09:36:45;102040.13;;;5.21;97.00
43161;BME280;40968;52.342;5.528;2024-03-06T09:39:11;102099.09;;;5.60;96.87
43161;BME280;40968;52.342;5.528;2024-03-06T09:41:41;102065.34;;;5.36;96.47
43161;BME280;40968;52.342;5.528;2024-03-06T09:44:08;102272.03;;;6.69;96.80
43161;BME280;40968;52.342;5.528;2024-03-06T09:46:35;102323.34;;;7.01;96.71
43161;BME280;40968;52.342;5.528;2024-03-06T09:49:04;102327.56;;;7.07;96.67
43161;BME280;40968;52.342;5.528;2024-03-06T09:51:31;102205.63;;;6.38;96.43
43161;BME280;40968;52.342;5.528;2024-03-06T09:53:58;102331.59;;;7.19;96.44
43161;BME280;40968;52.342;5.528;2024-03-06T09:56:24;101914.13;;;4.74;95.99
43161;BME280;40968;52.342;5.528;2024-03-06T09:58:54;102086.84;;;5.83;95.61
43161;BME280;40968;52.342;5.528;2024-03-06T10:01:21;102250.22;;;6.83;95.54
43161;BME280;40968;52.342;5.528;2024-03-06T10:03:50;102255.69;;;6.80;95.37
43161;BME280;40968;52.342;5.528;2024-03-06T10:06:18;102347.34;;;7.50;95.31
43161;BME280;40968;52.342;5.528;2024-03-06T10:08:45;102327.09;;;7.44;95.25
43161;BME280;40968;52.342;5.528;2024-03-06T10:11:13;102352.09;;;7.66;94.80
43161;BME280;40968;52.342;5.528;2024-03-06T10:13:40;102311.72;;;7.51;94.68
43161;BME280;40968;52.342;5.528;2024-03-06T10:16:06;102297.56;;;7.49;94.37
43161;BME280;40968;52.342;5.528;2024-03-06T10:18:35;102107.47;;;6.52;94.19
43161;BME280;40968;52.342;5.528;2024-03-06T10:21:04;102120.13;;;6.71;93.74
43161;BME280;40968;52.342;5.528;2024-03-06T10:23:32;102266.47;;;7.72;93.74
43161;BME280;40968;52.342;5.528;2024-03-06T10:26:00;102358.53;;;8.29;93.37
43161;BME280;40968;52.342;5.528;2024-03-06T10:28:26;102304.97;;;8.10;93.17
43161;BME280;40968;52.342;5.528;2024-03-06T10:31:03;102044.38;;;6.54;92.17
43161;BME280;40968;52.342;5.528;2024-03-06T10:33:31;102106.59;;;6.99;91.62
43161;BME280;40968;52.342;5.528;2024-03-06T10:35:58;102229.16;;;7.70;91.71
43161;BME280;40968;52.342;5.528;2024-03-06T10:38:25;102211.97;;;7.77;91.80
43161;BME280;40968;52.342;5.528;2024-03-06T10:40:56;102346.47;;;8.63;91.48
43161;BME280;40968;52.342;5.528;2024-03-06T10:43:23;102356.63;;;8.76;90.87
43161;BME280;40968;52.342;5.528;2024-03-06T10:45:51;102242.13;;;8.02;90.52
43161;BME280;40968;52.342;5.528;2024-03-06T10:48:21;102224.00;;;8.10;90.31
43161;BME280;40968;52.342;5.528;2024-03-06T10:50:49;102304.38;;;8.69;90.30
43161;BME280;40968;52.342;5.528;2024-03-06T10:53:17;102363.13;;;9.11;89.70
43161;BME280;40968;52.342;5.528;2024-03-06T10:55:45;102372.41;;;9.23;89.26
43161;BME280;40968;52.342;5.528;2024-03-06T10:58:13;102083.09;;;7.53;88.64
43161;BME280;40968;52.342;5.528;2024-03-06T11:00:41;102374.22;;;9.43;87.96
43161;BME280;40968;52.342;5.528;2024-03-06T11:03:08;102122.59;;;8.08;87.23
43161;BME280;40968;52.342;5.528;2024-03-06T11:05:37;102366.09;;;9.66;87.00
43161;BME280;40968;52.342;5.528;2024-03-06T11:08:05;102371.69;;;9.80;86.34
43161;BME280;40968;52.342;5.528;2024-03-06T11:10:33;102374.56;;;9.94;86.12
43161;BME280;40968;52.342;5.528;2024-03-06T11:13:01;102367.97;;;10.02;84.57
43161;BME280;40968;52.342;5.528;2024-03-06T11:15:29;102371.13;;;10.10;84.49
43161;BME280;40968;52.342;5.528;2024-03-06T11:17:56;102266.41;;;9.60;83.93
43161;BME280;40968;52.342;5.528;2024-03-06T11:20:23;102329.69;;;10.00;83.05
43161;BME280;40968;52.342;5.528;2024-03-06T11:23:07;102377.91;;;10.38;83.20
43161;BME280;40968;52.342;5.528;2024-03-06T11:25:56;102284.16;;;10.00;82.96
43161;BME280;40968;52.342;5.528;2024-03-06T11:28:26;102323.28;;;10.21;82.44
43161;BME280;40968;52.342;5.528;2024-03-06T11:30:58;102104.22;;;9.01;81.60
43161;BME280;40968;52.342;5.528;2024-03-06T11:33:28;102377.31;;;10.85;81.82
43161;BME280;40968;52.342;5.528;2024-03-06T11:36:17;102318.00;;;10.56;81.09
43161;BME280;40968;52.342;5.528;2024-03-06T11:38:50;102187.22;;;9.91;80.08
43161;BME280;40968;52.342;5.528;2024-03-06T11:41:18;102379.69;;;11.09;80.05
43161;BME280;40968;52.342;5.528;2024-03-06T11:43:45;102386.09;;;10.89;79.37
43161;BME280;40968;52.342;5.528;2024-03-06T11:46:17;102161.38;;;9.73;79.70
43161;BME280;40968;52.342;5.528;2024-03-06T11:48:51;102303.31;;;10.64;79.64
43161;BME280;40968;52.342;5.528;2024-03-06T11:51:18;102363.91;;;11.20;78.81
43161;BME280;40968;52.342;5.528;2024-03-06T11:53:45;102384.78;;;11.31;78.48
43161;BME280;40968;52.342;5.528;2024-03-06T11:56:11;102389.00;;;11.19;78.32
43161;BME280;40968;52.342;5.528;2024-03-06T11:58:38;102331.88;;;10.65;78.11
43161;BME280;40968;52.342;5.528;2024-03-06T12:01:04;102158.97;;;9.49;78.58
43161;BME280;40968;52.342;5.528;2024-03-06T12:03:32;102396.41;;;10.79;78.79
43161;BME280;40968;52.342;5.528;2024-03-06T12:05:59;102302.00;;;10.18;78.80
43161;BME280;40968;52.342;5.528;2024-03-06T12:08:27;102263.69;;;10.16;79.44
43161;BME280;40968;52.342;5.528;2024-03-06T12:10:53;102298.69;;;10.31;79.62
43161;BME280;40968;52.342;5.528;2024-03-06T12:13:23;102269.28;;;10.48;79.22
43161;BME280;40968;52.342;5.528;2024-03-06T12:15:50;102350.47;;;11.20;78.53
43161;BME280;40968;52.342;5.528;2024-03-06T12:18:17;102401.72;;;11.83;77.83
43161;BME280;40968;52.342;5.528;2024-03-06T12:20:45;102345.75;;;11.75;77.55
43161;BME280;40968;52.342;5.528;2024-03-06T12:23:19;102408.38;;;12.09;76.22
43161;BME280;40968;52.342;5.528;2024-03-06T12:25:48;102405.25;;;12.01;74.46
43161;BME280;40968;52.342;5.528;2024-03-06T12:28:15;102343.63;;;11.48;74.50
43161;BME280;40968;52.342;5.528;2024-03-06T12:30:43;102407.25;;;11.64;75.08
43161;BME280;40968;52.342;5.528;2024-03-06T12:33:10;102402.88;;;11.45;75.06
43161;BME280;40968;52.342;5.528;2024-03-06T12:35:40;102343.41;;;10.84;75.34
43161;BME280;40968;52.342;5.528;2024-03-06T12:38:13;102394.97;;;11.07;75.63
43161;BME280;40968;52.342;5.528;2024-03-06T12:40:40;102409.19;;;11.09;75.93
43161;BME280;40968;52.342;5.528;2024-03-06T12:43:06;102397.28;;;10.97;76.38
43161;BME280;40968;52.342;5.528;2024-03-06T12:45:34;102348.13;;;10.61;76.61
43161;BME280;40968;52.342;5.528;2024-03-06T12:48:01;102404.88;;;10.89;76.79
43161;BME280;40968;52.342;5.528;2024-03-06T12:50:30;102315.03;;;10.26;76.71
43161;BME280;40968;52.342;5.528;2024-03-06T12:52:56;102327.41;;;10.28;77.10
43161;BME280;40968;52.342;5.528;2024-03-06T12:55:24;102144.53;;;9.15;77.69
43161;BME280;40968;52.342;5.528;2024-03-06T12:57:55;102292.03;;;10.03;77.88
43161;BME280;40968;52.342;5.528;2024-03-06T13:00:22;102192.63;;;9.36;77.90
43161;BME280;40968;52.342;5.528;2024-03-06T13:02:49;102267.44;;;9.94;78.15